sensor_id;sensor_type;location;lat;lon;timestamp;P1;durP1;ratioP1;P2;durP2;ratioP2
41683;SDS011;27369;52.030;4.586;2023-01-10T00:01:55;16.20;;;2.08;;
41683;SDS011;27369;52.030;4.586;2023-01-10T00:04:21;13.15;;;2.38;;
41683;SDS011;27369;52.030;4.586;2023-01-10T00:06:47;12.95;;;2.03;;
41683;SDS011;27369;52.030;4.586;2023-01-10T00:09:12;9.15;;;1.85;;
41683;SDS011;27369;52.030;4.586;2023-01-10T00:11:38;10.90;;;2.00;;
41683;SDS011;27369;52.030;4.586;2023-01-10T00:14:22;16.13;;;1.88;;
41683;SDS011;27369;52.030;4.586;2023-01-10T00:16:47;9.93;;;1.98;;
41683;SDS011;27369;52.030;4.586;2023-01-10T00:19:13;18.73;;;2.47;;
41683;SDS011;27369;52.030;4.586;2023-01-10T00:21:38;11.48;;;2.45;;
41683;SDS011;27369;52.030;4.586;2023-01-10T00:24:04;28.65;;;2.85;;
41683;SDS011;27369;52.030;4.586;2023-01-10T00:26:46;7.55;;;1.75;;
41683;SDS011;27369;52.030;4.586;2023-01-10T00:29:17;18.13;;;2.97;;
41683;SDS011;27369;52.030;4.586;2023-01-10T00:31:43;20.70;;;2.83;;
41683;SDS011;27369;52.030;4.586;2023-01-10T00:34:09;14.30;;;2.08;;
41683;SDS011;27369;52.030;4.586;2023-01-10T00:36:34;7.35;;;2.75;;
41683;SDS011;27369;52.030;4.586;2023-01-10T00:39:00;14.27;;;3.03;;
41683;SDS011;27369;52.030;4.586;2023-01-10T00:41:25;18.23;;;2.38;;
41683;SDS011;27369;52.030;4.586;2023-01-10T00:44:09;15.50;;;2.05;;
41683;SDS011;27369;52.030;4.586;2023-01-10T00:46:34;23.17;;;3.45;;
41683;SDS011;27369;52.030;4.586;2023-01-10T00:48:59;16.02;;;1.27;;
41683;SDS011;27369;52.030;4.586;2023-01-10T00:51:26;18.13;;;2.85;;
41683;SDS011;27369;52.030;4.586;2023-01-10T00:53:51;20.02;;;3.10;;
41683;SDS011;27369;52.030;4.586;2023-01-10T00:56:16;20.23;;;3.05;;
41683;SDS011;27369;52.030;4.586;2023-01-10T00:58:42;11.70;;;2.47;;
41683;SDS011;27369;52.030;4.586;2023-01-10T01:01:08;14.05;;;3.35;;
41683;SDS011;27369;52.030;4.586;2023-01-10T01:03:34;22.65;;;2.92;;
41683;SDS011;27369;52.030;4.586;2023-01-10T01:06:02;18.85;;;2.30;;
41683;SDS011;27369;52.030;4.586;2023-01-10T01:08:29;17.13;;;3.08;;
41683;SDS011;27369;52.030;4.586;2023-01-10T01:10:55;13.82;;;1.88;;
41683;SDS011;27369;52.030;4.586;2023-01-10T01:13:20;8.98;;;1.98;;
41683;SDS011;27369;52.030;4.586;2023-01-10T01:15:47;12.30;;;2.22;;
41683;SDS011;27369;52.030;4.586;2023-01-10T01:18:13;13.30;;;2.30;;
41683;SDS011;27369;52.030;4.586;2023-01-10T01:20:44;14.45;;;2.35;;
41683;SDS011;27369;52.030;4.586;2023-01-10T01:23:10;30.55;;;3.70;;
41683;SDS011;27369;52.030;4.586;2023-01-10T01:25:36;16.00;;;2.75;;
41683;SDS011;27369;52.030;4.586;2023-01-10T01:28:01;11.90;;;1.83;;
41683;SDS011;27369;52.030;4.586;2023-01-10T01:30:27;16.25;;;2.55;;
41683;SDS011;27369;52.030;4.586;2023-01-10T01:32:52;19.50;;;2.80;;
41683;SDS011;27369;52.030;4.586;2023-01-10T01:35:18;24.70;;;2.93;;
41683;SDS011;27369;52.030;4.586;2023-01-10T01:37:43;15.38;;;2.47;;
41683;SDS011;27369;52.030;4.586;2023-01-10T01:40:19;10.52;;;2.38;;
41683;SDS011;27369;52.030;4.586;2023-01-10T01:42:46;21.05;;;3.40;;
41683;SDS011;27369;52.030;4.586;2023-01-10T01:50:15;11.90;;;2.70;;
41683;SDS011;27369;52.030;4.586;2023-01-10T01:52:50;11.35;;;2.40;;
41683;SDS011;27369;52.030;4.586;2023-01-10T01:55:18;16.20;;;2.30;;
41683;SDS011;27369;52.030;4.586;2023-01-10T01:57:44;25.10;;;3.28;;
41683;SDS011;27369;52.030;4.586;2023-01-10T02:00:11;11.00;;;1.80;;
41683;SDS011;27369;52.030;4.586;2023-01-10T02:02:44;18.65;;;3.10;;
41683;SDS011;27369;52.030;4.586;2023-01-10T02:05:14;22.20;;;2.65;;
41683;SDS011;27369;52.030;4.586;2023-01-10T02:07:43;19.30;;;2.70;;
41683;SDS011;27369;52.030;4.586;2023-01-10T02:10:23;12.57;;;2.50;;
41683;SDS011;27369;52.030;4.586;2023-01-10T02:12:55;16.27;;;3.03;;
41683;SDS011;27369;52.030;4.586;2023-01-10T02:15:25;8.60;;;2.75;;
41683;SDS011;27369;52.030;4.586;2023-01-10T02:17:51;30.80;;;3.97;;
41683;SDS011;27369;52.030;4.586;2023-01-10T02:20:17;20.48;;;3.10;;
41683;SDS011;27369;52.030;4.586;2023-01-10T02:25:46;19.45;;;2.90;;
41683;SDS011;27369;52.030;4.586;2023-01-10T02:32:10;16.73;;;2.83;;
41683;SDS011;27369;52.030;4.586;2023-01-10T02:35:05;12.50;;;2.47;;
41683;SDS011;27369;52.030;4.586;2023-01-10T02:42:57;11.38;;;1.65;;
41683;SDS011;27369;52.030;4.586;2023-01-10T02:45:37;19.08;;;2.78;;
41683;SDS011;27369;52.030;4.586;2023-01-10T02:48:08;23.70;;;3.92;;
41683;SDS011;27369;52.030;4.586;2023-01-10T02:53:13;11.63;;;2.08;;
41683;SDS011;27369;52.030;4.586;2023-01-10T03:10:18;18.73;;;2.72;;
41683;SDS011;27369;52.030;4.586;2023-01-10T03:12:57;16.55;;;2.60;;
41683;SDS011;27369;52.030;4.586;2023-01-10T03:15:26;20.35;;;2.25;;
41683;SDS011;27369;52.030;4.586;2023-01-10T03:17:56;16.33;;;2.67;;
41683;SDS011;27369;52.030;4.586;2023-01-10T03:20:25;11.70;;;1.83;;
41683;SDS011;27369;52.030;4.586;2023-01-10T03:22:53;23.40;;;3.15;;
41683;SDS011;27369;52.030;4.586;2023-01-10T03:25:20;18.85;;;2.92;;
41683;SDS011;27369;52.030;4.586;2023-01-10T03:27:53;11.98;;;1.88;;
41683;SDS011;27369;52.030;4.586;2023-01-10T03:32:52;11.73;;;2.83;;
41683;SDS011;27369;52.030;4.586;2023-01-10T03:35:21;16.80;;;2.63;;
41683;SDS011;27369;52.030;4.586;2023-01-10T03:38:01;11.55;;;2.25;;
41683;SDS011;27369;52.030;4.586;2023-01-10T03:40:34;6.07;;;1.15;;
41683;SDS011;27369;52.030;4.586;2023-01-10T03:43:13;10.98;;;2.40;;
41683;SDS011;27369;52.030;4.586;2023-01-10T03:46:07;13.88;;;1.92;;
41683;SDS011;27369;52.030;4.586;2023-01-10T03:48:38;20.45;;;3.00;;
41683;SDS011;27369;52.030;4.586;2023-01-10T03:51:07;13.82;;;2.33;;
41683;SDS011;27369;52.030;4.586;2023-01-10T03:53:34;17.20;;;2.78;;
41683;SDS011;27369;52.030;4.586;2023-01-10T03:56:02;18.17;;;3.20;;
41683;SDS011;27369;52.030;4.586;2023-01-10T03:58:28;14.20;;;2.92;;
41683;SDS011;27369;52.030;4.586;2023-01-10T04:00:53;20.63;;;2.97;;
41683;SDS011;27369;52.030;4.586;2023-01-10T04:03:19;18.08;;;2.42;;
41683;SDS011;27369;52.030;4.586;2023-01-10T04:05:44;16.92;;;2.40;;
41683;SDS011;27369;52.030;4.586;2023-01-10T04:08:10;27.23;;;3.40;;
41683;SDS011;27369;52.030;4.586;2023-01-10T04:10:35;20.42;;;3.38;;
41683;SDS011;27369;52.030;4.586;2023-01-10T04:15:27;19.27;;;2.73;;
41683;SDS011;27369;52.030;4.586;2023-01-10T04:17:53;17.75;;;2.70;;
41683;SDS011;27369;52.030;4.586;2023-01-10T04:22:45;14.53;;;2.20;;
41683;SDS011;27369;52.030;4.586;2023-01-10T04:25:13;21.75;;;3.13;;
41683;SDS011;27369;52.030;4.586;2023-01-10T04:27:39;20.38;;;2.47;;
41683;SDS011;27369;52.030;4.586;2023-01-10T04:30:05;22.80;;;4.53;;
41683;SDS011;27369;52.030;4.586;2023-01-10T04:32:31;30.25;;;4.15;;
41683;SDS011;27369;52.030;4.586;2023-01-10T04:34:56;27.02;;;4.53;;
41683;SDS011;27369;52.030;4.586;2023-01-10T04:37:22;22.27;;;3.03;;
41683;SDS011;27369;52.030;4.586;2023-01-10T04:39:47;16.98;;;2.95;;
41683;SDS011;27369;52.030;4.586;2023-01-10T04:42:12;26.42;;;3.78;;
41683;SDS011;27369;52.030;4.586;2023-01-10T04:44:38;16.50;;;2.58;;
41683;SDS011;27369;52.030;4.586;2023-01-10T04:47:03;20.35;;;3.20;;
41683;SDS011;27369;52.030;4.586;2023-01-10T04:49:29;19.77;;;2.90;;
41683;SDS011;27369;52.030;4.586;2023-01-10T04:51:55;19.63;;;3.42;;
41683;SDS011;27369;52.030;4.586;2023-01-10T04:54:20;19.27;;;3.03;;
41683;SDS011;27369;52.030;4.586;2023-01-10T04:59:12;19.93;;;3.43;;
41683;SDS011;27369;52.030;4.586;2023-01-10T05:01:37;21.02;;;3.10;;
41683;SDS011;27369;52.030;4.586;2023-01-10T05:04:03;24.63;;;3.20;;
41683;SDS011;27369;52.030;4.586;2023-01-10T05:06:30;22.13;;;3.05;;
41683;SDS011;27369;52.030;4.586;2023-01-10T05:08:56;21.73;;;2.97;;
41683;SDS011;27369;52.030;4.586;2023-01-10T05:11:21;24.27;;;3.40;;
41683;SDS011;27369;52.030;4.586;2023-01-10T05:13:47;17.95;;;2.95;;
41683;SDS011;27369;52.030;4.586;2023-01-10T05:16:13;25.40;;;4.45;;
41683;SDS011;27369;52.030;4.586;2023-01-10T05:18:39;26.63;;;4.38;;
41683;SDS011;27369;52.030;4.586;2023-01-10T05:21:07;24.75;;;3.67;;
41683;SDS011;27369;52.030;4.586;2023-01-10T05:23:34;20.15;;;3.58;;
41683;SDS011;27369;52.030;4.586;2023-01-10T05:26:10;17.17;;;2.97;;
41683;SDS011;27369;52.030;4.586;2023-01-10T05:28:40;18.80;;;3.05;;
41683;SDS011;27369;52.030;4.586;2023-01-10T05:31:07;24.30;;;4.40;;
41683;SDS011;27369;52.030;4.586;2023-01-10T05:33:33;21.77;;;3.97;;
41683;SDS011;27369;52.030;4.586;2023-01-10T05:36:03;22.92;;;3.67;;
41683;SDS011;27369;52.030;4.586;2023-01-10T05:38:29;26.15;;;3.60;;
41683;SDS011;27369;52.030;4.586;2023-01-10T05:40:56;22.02;;;3.35;;
41683;SDS011;27369;52.030;4.586;2023-01-10T05:43:22;20.55;;;3.38;;
41683;SDS011;27369;52.030;4.586;2023-01-10T05:45:48;27.63;;;3.73;;
41683;SDS011;27369;52.030;4.586;2023-01-10T05:48:14;26.63;;;4.18;;
41683;SDS011;27369;52.030;4.586;2023-01-10T05:50:40;22.42;;;3.53;;
41683;SDS011;27369;52.030;4.586;2023-01-10T05:53:05;25.30;;;4.27;;
41683;SDS011;27369;52.030;4.586;2023-01-10T05:55:31;17.23;;;3.33;;
41683;SDS011;27369;52.030;4.586;2023-01-10T05:57:57;20.65;;;3.53;;
41683;SDS011;27369;52.030;4.586;2023-01-10T06:00:22;25.17;;;3.63;;
41683;SDS011;27369;52.030;4.586;2023-01-10T06:02:48;26.20;;;3.90;;
41683;SDS011;27369;52.030;4.586;2023-01-10T06:05:14;29.88;;;4.13;;
41683;SDS011;27369;52.030;4.586;2023-01-10T06:07:39;27.00;;;4.60;;
41683;SDS011;27369;52.030;4.586;2023-01-10T06:10:05;27.60;;;3.95;;
41683;SDS011;27369;52.030;4.586;2023-01-10T06:12:31;28.33;;;3.65;;
41683;SDS011;27369;52.030;4.586;2023-01-10T06:14:56;28.27;;;4.07;;
41683;SDS011;27369;52.030;4.586;2023-01-10T06:17:21;14.75;;;3.15;;
41683;SDS011;27369;52.030;4.586;2023-01-10T06:19:47;18.75;;;3.22;;
41683;SDS011;27369;52.030;4.586;2023-01-10T06:22:12;21.45;;;4.10;;
41683;SDS011;27369;52.030;4.586;2023-01-10T06:24:38;35.35;;;4.95;;
41683;SDS011;27369;52.030;4.586;2023-01-10T06:27:03;22.80;;;4.57;;
41683;SDS011;27369;52.030;4.586;2023-01-10T06:29:29;29.67;;;3.15;;
41683;SDS011;27369;52.030;4.586;2023-01-10T06:31:55;23.33;;;5.03;;
41683;SDS011;27369;52.030;4.586;2023-01-10T06:34:20;23.70;;;4.30;;
41683;SDS011;27369;52.030;4.586;2023-01-10T06:36:46;19.10;;;3.40;;
41683;SDS011;27369;52.030;4.586;2023-01-10T06:39:11;22.10;;;3.20;;
41683;SDS011;27369;52.030;4.586;2023-01-10T06:41:36;22.05;;;2.95;;
41683;SDS011;27369;52.030;4.586;2023-01-10T06:44:02;23.45;;;3.50;;
41683;SDS011;27369;52.030;4.586;2023-01-10T06:46:27;21.95;;;3.60;;
41683;SDS011;27369;52.030;4.586;2023-01-10T06:48:53;26.52;;;3.45;;
41683;SDS011;27369;52.030;4.586;2023-01-10T06:51:18;21.80;;;3.63;;
41683;SDS011;27369;52.030;4.586;2023-01-10T06:53:43;22.70;;;3.83;;
41683;SDS011;27369;52.030;4.586;2023-01-10T06:56:09;20.10;;;3.53;;
41683;SDS011;27369;52.030;4.586;2023-01-10T06:58:35;25.95;;;3.63;;
41683;SDS011;27369;52.030;4.586;2023-01-10T07:01:05;22.83;;;4.03;;
41683;SDS011;27369;52.030;4.586;2023-01-10T07:03:31;26.23;;;3.83;;
41683;SDS011;27369;52.030;4.586;2023-01-10T07:05:59;27.33;;;3.85;;
41683;SDS011;27369;52.030;4.586;2023-01-10T07:08:25;23.15;;;3.55;;
41683;SDS011;27369;52.030;4.586;2023-01-10T07:10:51;23.63;;;3.72;;
41683;SDS011;27369;52.030;4.586;2023-01-10T07:13:17;15.82;;;3.78;;
41683;SDS011;27369;52.030;4.586;2023-01-10T07:19:04;24.98;;;3.90;;
41683;SDS011;27369;52.030;4.586;2023-01-10T07:21:29;22.33;;;4.13;;
41683;SDS011;27369;52.030;4.586;2023-01-10T07:23:54;23.97;;;4.37;;
41683;SDS011;27369;52.030;4.586;2023-01-10T07:26:20;21.90;;;3.20;;
41683;SDS011;27369;52.030;4.586;2023-01-10T07:28:48;28.02;;;3.90;;
41683;SDS011;27369;52.030;4.586;2023-01-10T07:31:15;23.60;;;2.78;;
41683;SDS011;27369;52.030;4.586;2023-01-10T07:33:42;23.35;;;4.50;;
41683;SDS011;27369;52.030;4.586;2023-01-10T07:36:07;29.58;;;4.57;;
41683;SDS011;27369;52.030;4.586;2023-01-10T07:38:33;28.88;;;3.67;;
41683;SDS011;27369;52.030;4.586;2023-01-10T07:41:01;25.60;;;3.72;;
41683;SDS011;27369;52.030;4.586;2023-01-10T07:43:27;26.17;;;3.85;;
41683;SDS011;27369;52.030;4.586;2023-01-10T07:45:53;18.23;;;2.90;;
41683;SDS011;27369;52.030;4.586;2023-01-10T07:48:22;25.50;;;4.13;;
41683;SDS011;27369;52.030;4.586;2023-01-10T07:50:48;32.53;;;5.65;;
41683;SDS011;27369;52.030;4.586;2023-01-10T07:53:13;20.33;;;3.15;;
41683;SDS011;27369;52.030;4.586;2023-01-10T07:55:38;25.77;;;3.85;;
41683;SDS011;27369;52.030;4.586;2023-01-10T07:58:04;20.33;;;5.10;;
41683;SDS011;27369;52.030;4.586;2023-01-10T08:00:34;28.08;;;4.28;;
41683;SDS011;27369;52.030;4.586;2023-01-10T08:03:00;19.77;;;4.82;;
41683;SDS011;27369;52.030;4.586;2023-01-10T08:05:25;27.58;;;3.92;;
41683;SDS011;27369;52.030;4.586;2023-01-10T08:07:51;26.30;;;4.57;;
41683;SDS011;27369;52.030;4.586;2023-01-10T08:10:17;16.67;;;4.43;;
41683;SDS011;27369;52.030;4.586;2023-01-10T08:12:42;27.98;;;3.53;;
41683;SDS011;27369;52.030;4.586;2023-01-10T08:15:08;31.35;;;4.05;;
41683;SDS011;27369;52.030;4.586;2023-01-10T08:17:34;25.77;;;4.43;;
41683;SDS011;27369;52.030;4.586;2023-01-10T08:20:00;25.60;;;3.88;;
41683;SDS011;27369;52.030;4.586;2023-01-10T08:22:26;25.95;;;4.47;;
41683;SDS011;27369;52.030;4.586;2023-01-10T08:24:53;27.98;;;5.25;;
41683;SDS011;27369;52.030;4.586;2023-01-10T08:27:18;36.22;;;6.35;;
41683;SDS011;27369;52.030;4.586;2023-01-10T08:29:44;19.52;;;3.95;;
41683;SDS011;27369;52.030;4.586;2023-01-10T08:32:09;18.58;;;3.55;;
41683;SDS011;27369;52.030;4.586;2023-01-10T08:34:35;26.85;;;4.18;;
41683;SDS011;27369;52.030;4.586;2023-01-10T08:37:01;33.58;;;5.05;;
41683;SDS011;27369;52.030;4.586;2023-01-10T08:39:27;18.67;;;3.85;;
41683;SDS011;27369;52.030;4.586;2023-01-10T08:41:54;22.92;;;4.03;;
41683;SDS011;27369;52.030;4.586;2023-01-10T08:44:20;19.83;;;3.25;;
41683;SDS011;27369;52.030;4.586;2023-01-10T08:46:45;21.95;;;4.35;;
41683;SDS011;27369;52.030;4.586;2023-01-10T08:49:10;21.80;;;4.05;;
41683;SDS011;27369;52.030;4.586;2023-01-10T08:51:36;24.42;;;5.28;;
41683;SDS011;27369;52.030;4.586;2023-01-10T08:54:01;22.48;;;3.60;;
41683;SDS011;27369;52.030;4.586;2023-01-10T08:56:27;20.75;;;4.05;;
41683;SDS011;27369;52.030;4.586;2023-01-10T08:58:52;26.05;;;4.18;;
41683;SDS011;27369;52.030;4.586;2023-01-10T09:01:18;21.38;;;3.70;;
41683;SDS011;27369;52.030;4.586;2023-01-10T09:03:43;28.75;;;4.57;;
41683;SDS011;27369;52.030;4.586;2023-01-10T09:06:09;24.48;;;3.65;;
41683;SDS011;27369;52.030;4.586;2023-01-10T09:08:35;21.60;;;3.85;;
41683;SDS011;27369;52.030;4.586;2023-01-10T09:11:01;22.50;;;4.03;;
41683;SDS011;27369;52.030;4.586;2023-01-10T09:13:27;28.95;;;5.05;;
41683;SDS011;27369;52.030;4.586;2023-01-10T09:18:19;25.83;;;3.87;;
41683;SDS011;27369;52.030;4.586;2023-01-10T09:20:45;25.50;;;4.55;;
41683;SDS011;27369;52.030;4.586;2023-01-10T09:23:14;20.60;;;4.15;;
41683;SDS011;27369;52.030;4.586;2023-01-10T09:25:43;28.63;;;4.45;;
41683;SDS011;27369;52.030;4.586;2023-01-10T09:30:35;15.23;;;3.97;;
41683;SDS011;27369;52.030;4.586;2023-01-10T09:33:01;17.80;;;3.70;;
41683;SDS011;27369;52.030;4.586;2023-01-10T09:35:28;24.67;;;4.35;;
41683;SDS011;27369;52.030;4.586;2023-01-10T09:37:55;23.58;;;4.35;;
41683;SDS011;27369;52.030;4.586;2023-01-10T09:46:34;27.73;;;5.47;;
41683;SDS011;27369;52.030;4.586;2023-01-10T09:52:03;23.95;;;4.25;;
41683;SDS011;27369;52.030;4.586;2023-01-10T09:54:41;27.17;;;4.78;;
41683;SDS011;27369;52.030;4.586;2023-01-10T09:57:17;21.67;;;4.25;;
41683;SDS011;27369;52.030;4.586;2023-01-10T09:59:45;24.42;;;4.40;;
41683;SDS011;27369;52.030;4.586;2023-01-10T10:05:10;20.42;;;4.40;;
41683;SDS011;27369;52.030;4.586;2023-01-10T10:07:50;20.90;;;3.75;;
41683;SDS011;27369;52.030;4.586;2023-01-10T10:10:29;15.73;;;3.47;;
41683;SDS011;27369;52.030;4.586;2023-01-10T10:13:32;22.08;;;5.18;;
41683;SDS011;27369;52.030;4.586;2023-01-10T10:19:00;22.35;;;3.78;;
41683;SDS011;27369;52.030;4.586;2023-01-10T10:24:55;19.85;;;3.97;;
41683;SDS011;27369;52.030;4.586;2023-01-10T10:38:42;30.85;;;4.90;;
41683;SDS011;27369;52.030;4.586;2023-01-10T10:40:49;26.98;;;4.20;;
41683;SDS011;27369;52.030;4.586;2023-01-10T10:43:20;16.88;;;3.63;;
41683;SDS011;27369;52.030;4.586;2023-01-10T10:45:54;31.92;;;5.10;;
41683;SDS011;27369;52.030;4.586;2023-01-10T10:48:27;23.90;;;4.28;;
41683;SDS011;27369;52.030;4.586;2023-01-10T10:53:42;20.58;;;4.65;;
41683;SDS011;27369;52.030;4.586;2023-01-10T10:56:10;21.17;;;4.32;;
41683;SDS011;27369;52.030;4.586;2023-01-10T10:58:41;18.88;;;4.15;;
41683;SDS011;27369;52.030;4.586;2023-01-10T11:01:14;26.52;;;5.13;;
41683;SDS011;27369;52.030;4.586;2023-01-10T11:06:24;21.13;;;3.72;;
41683;SDS011;27369;52.030;4.586;2023-01-10T11:08:54;20.05;;;4.97;;
41683;SDS011;27369;52.030;4.586;2023-01-10T11:11:27;23.50;;;3.80;;
41683;SDS011;27369;52.030;4.586;2023-01-10T11:16:32;22.15;;;3.40;;
41683;SDS011;27369;52.030;4.586;2023-01-10T11:22:05;22.15;;;3.92;;
41683;SDS011;27369;52.030;4.586;2023-01-10T11:27:04;27.95;;;4.03;;
41683;SDS011;27369;52.030;4.586;2023-01-10T11:29:43;21.75;;;3.10;;
41683;SDS011;27369;52.030;4.586;2023-01-10T11:32:12;20.45;;;4.40;;
41683;SDS011;27369;52.030;4.586;2023-01-10T11:34:41;20.38;;;3.97;;
41683;SDS011;27369;52.030;4.586;2023-01-10T11:37:25;21.80;;;4.90;;
41683;SDS011;27369;52.030;4.586;2023-01-10T11:42:38;20.23;;;4.22;;
41683;SDS011;27369;52.030;4.586;2023-01-10T11:45:13;23.90;;;4.63;;
41683;SDS011;27369;52.030;4.586;2023-01-10T11:47:42;22.95;;;4.20;;
41683;SDS011;27369;52.030;4.586;2023-01-10T11:50:41;18.63;;;4.63;;
41683;SDS011;27369;52.030;4.586;2023-01-10T11:53:27;18.90;;;4.38;;
41683;SDS011;27369;52.030;4.586;2023-01-10T11:56:06;19.20;;;3.72;;
41683;SDS011;27369;52.030;4.586;2023-01-10T11:58:38;23.27;;;4.85;;
41683;SDS011;27369;52.030;4.586;2023-01-10T12:01:04;19.55;;;2.95;;
41683;SDS011;27369;52.030;4.586;2023-01-10T12:03:33;15.65;;;3.53;;
41683;SDS011;27369;52.030;4.586;2023-01-10T12:08:36;19.25;;;3.72;;
41683;SDS011;27369;52.030;4.586;2023-01-10T12:11:04;20.50;;;3.53;;
41683;SDS011;27369;52.030;4.586;2023-01-10T12:13:43;22.27;;;4.30;;
41683;SDS011;27369;52.030;4.586;2023-01-10T12:16:22;18.75;;;3.65;;
41683;SDS011;27369;52.030;4.586;2023-01-10T12:18:48;17.80;;;3.45;;
41683;SDS011;27369;52.030;4.586;2023-01-10T12:21:16;24.63;;;3.67;;
41683;SDS011;27369;52.030;4.586;2023-01-10T12:23:46;18.13;;;4.32;;
41683;SDS011;27369;52.030;4.586;2023-01-10T12:26:13;22.33;;;4.10;;
41683;SDS011;27369;52.030;4.586;2023-01-10T12:28:41;17.05;;;3.45;;
41683;SDS011;27369;52.030;4.586;2023-01-10T12:31:15;17.88;;;3.38;;
41683;SDS011;27369;52.030;4.586;2023-01-10T12:33:44;16.55;;;3.67;;
41683;SDS011;27369;52.030;4.586;2023-01-10T12:44:24;14.90;;;3.75;;
41683;SDS011;27369;52.030;4.586;2023-01-10T12:49:29;15.27;;;3.42;;
41683;SDS011;27369;52.030;4.586;2023-01-10T12:52:01;16.90;;;3.67;;
41683;SDS011;27369;52.030;4.586;2023-01-10T12:54:31;19.92;;;3.70;;
41683;SDS011;27369;52.030;4.586;2023-01-10T12:57:00;24.17;;;3.92;;
41683;SDS011;27369;52.030;4.586;2023-01-10T12:59:32;21.50;;;3.78;;
41683;SDS011;27369;52.030;4.586;2023-01-10T13:02:03;23.20;;;3.55;;
41683;SDS011;27369;52.030;4.586;2023-01-10T13:04:34;19.30;;;3.95;;
41683;SDS011;27369;52.030;4.586;2023-01-10T13:07:01;25.55;;;3.45;;
41683;SDS011;27369;52.030;4.586;2023-01-10T13:09:29;17.58;;;3.80;;
41683;SDS011;27369;52.030;4.586;2023-01-10T13:14:32;17.30;;;3.65;;
41683;SDS011;27369;52.030;4.586;2023-01-10T13:17:06;19.27;;;3.65;;
41683;SDS011;27369;52.030;4.586;2023-01-10T13:19:43;23.60;;;4.72;;
41683;SDS011;27369;52.030;4.586;2023-01-10T13:22:41;15.77;;;3.78;;
41683;SDS011;27369;52.030;4.586;2023-01-10T13:25:21;21.70;;;4.13;;
41683;SDS011;27369;52.030;4.586;2023-01-10T13:30:42;22.63;;;3.17;;
41683;SDS011;27369;52.030;4.586;2023-01-10T13:35:45;19.30;;;3.55;;
41683;SDS011;27369;52.030;4.586;2023-01-10T13:38:20;20.75;;;4.10;;
41683;SDS011;27369;52.030;4.586;2023-01-10T13:40:59;23.60;;;3.70;;
41683;SDS011;27369;52.030;4.586;2023-01-10T13:51:24;24.98;;;3.70;;
41683;SDS011;27369;52.030;4.586;2023-01-10T13:53:53;16.83;;;2.70;;
41683;SDS011;27369;52.030;4.586;2023-01-10T13:56:30;18.77;;;3.30;;
41683;SDS011;27369;52.030;4.586;2023-01-10T13:59:00;21.75;;;3.67;;
41683;SDS011;27369;52.030;4.586;2023-01-10T14:01:51;18.67;;;3.05;;
41683;SDS011;27369;52.030;4.586;2023-01-10T14:04:51;15.82;;;3.60;;
41683;SDS011;27369;52.030;4.586;2023-01-10T14:10:18;19.17;;;3.47;;
41683;SDS011;27369;52.030;4.586;2023-01-10T14:12:56;22.00;;;4.63;;
41683;SDS011;27369;52.030;4.586;2023-01-10T14:15:37;20.08;;;2.95;;
41683;SDS011;27369;52.030;4.586;2023-01-10T14:21:00;18.60;;;3.47;;
41683;SDS011;27369;52.030;4.586;2023-01-10T14:23:49;18.70;;;2.95;;
41683;SDS011;27369;52.030;4.586;2023-01-10T14:26:16;13.95;;;4.13;;
41683;SDS011;27369;52.030;4.586;2023-01-10T14:28:49;15.20;;;3.60;;
41683;SDS011;27369;52.030;4.586;2023-01-10T14:31:19;12.13;;;3.00;;
41683;SDS011;27369;52.030;4.586;2023-01-10T14:33:47;11.65;;;3.10;;
41683;SDS011;27369;52.030;4.586;2023-01-10T14:36:20;14.77;;;2.55;;
41683;SDS011;27369;52.030;4.586;2023-01-10T14:38:50;13.40;;;2.85;;
41683;SDS011;27369;52.030;4.586;2023-01-10T14:41:20;10.23;;;2.75;;
41683;SDS011;27369;52.030;4.586;2023-01-10T14:44:05;10.60;;;3.13;;
41683;SDS011;27369;52.030;4.586;2023-01-10T14:49:19;13.77;;;2.70;;
41683;SDS011;27369;52.030;4.586;2023-01-10T14:51:45;12.68;;;3.65;;
41683;SDS011;27369;52.030;4.586;2023-01-10T14:54:14;6.95;;;2.10;;
41683;SDS011;27369;52.030;4.586;2023-01-10T14:56:43;12.80;;;2.70;;
41683;SDS011;27369;52.030;4.586;2023-01-10T14:59:27;11.05;;;2.35;;
41683;SDS011;27369;52.030;4.586;2023-01-10T15:01:54;13.07;;;2.38;;
41683;SDS011;27369;52.030;4.586;2023-01-10T15:04:28;13.77;;;3.22;;
41683;SDS011;27369;52.030;4.586;2023-01-10T15:09:26;14.07;;;2.78;;
41683;SDS011;27369;52.030;4.586;2023-01-10T15:11:53;10.80;;;2.92;;
41683;SDS011;27369;52.030;4.586;2023-01-10T15:14:21;12.60;;;2.65;;
41683;SDS011;27369;52.030;4.586;2023-01-10T15:16:50;9.68;;;2.47;;
41683;SDS011;27369;52.030;4.586;2023-01-10T15:19:19;15.35;;;2.97;;
41683;SDS011;27369;52.030;4.586;2023-01-10T15:21:46;8.80;;;2.25;;
41683;SDS011;27369;52.030;4.586;2023-01-10T15:24:29;13.63;;;2.83;;
41683;SDS011;27369;52.030;4.586;2023-01-10T15:27:00;10.57;;;2.63;;
41683;SDS011;27369;52.030;4.586;2023-01-10T15:29:28;13.98;;;2.60;;
41683;SDS011;27369;52.030;4.586;2023-01-10T15:32:01;10.27;;;2.58;;
41683;SDS011;27369;52.030;4.586;2023-01-10T15:34:32;7.30;;;2.20;;
41683;SDS011;27369;52.030;4.586;2023-01-10T15:36:58;5.18;;;1.65;;
41683;SDS011;27369;52.030;4.586;2023-01-10T15:39:27;11.35;;;2.40;;
41683;SDS011;27369;52.030;4.586;2023-01-10T15:42:02;11.93;;;2.55;;
41683;SDS011;27369;52.030;4.586;2023-01-10T15:44:33;11.13;;;2.67;;
41683;SDS011;27369;52.030;4.586;2023-01-10T15:46:59;12.10;;;2.35;;
41683;SDS011;27369;52.030;4.586;2023-01-10T15:49:25;6.00;;;2.22;;
41683;SDS011;27369;52.030;4.586;2023-01-10T15:51:51;8.48;;;2.53;;
41683;SDS011;27369;52.030;4.586;2023-01-10T15:59:31;11.90;;;2.67;;
41683;SDS011;27369;52.030;4.586;2023-01-10T16:04:37;6.55;;;2.40;;
41683;SDS011;27369;52.030;4.586;2023-01-10T16:07:23;8.98;;;2.53;;
41683;SDS011;27369;52.030;4.586;2023-01-10T16:09:57;6.85;;;2.80;;
41683;SDS011;27369;52.030;4.586;2023-01-10T16:12:24;5.22;;;2.67;;
41683;SDS011;27369;52.030;4.586;2023-01-10T16:17:41;7.78;;;2.47;;
41683;SDS011;27369;52.030;4.586;2023-01-10T16:20:11;7.13;;;2.75;;
41683;SDS011;27369;52.030;4.586;2023-01-10T16:22:37;6.47;;;2.70;;
41683;SDS011;27369;52.030;4.586;2023-01-10T16:25:03;5.45;;;2.28;;
41683;SDS011;27369;52.030;4.586;2023-01-10T16:27:29;7.10;;;2.80;;
41683;SDS011;27369;52.030;4.586;2023-01-10T16:29:54;6.82;;;2.25;;
41683;SDS011;27369;52.030;4.586;2023-01-10T16:32:20;8.82;;;2.40;;
41683;SDS011;27369;52.030;4.586;2023-01-10T16:34:46;6.07;;;2.40;;
41683;SDS011;27369;52.030;4.586;2023-01-10T16:39:38;7.43;;;3.30;;
41683;SDS011;27369;52.030;4.586;2023-01-10T16:42:03;4.40;;;2.42;;
41683;SDS011;27369;52.030;4.586;2023-01-10T16:44:47;5.40;;;2.78;;
41683;SDS011;27369;52.030;4.586;2023-01-10T16:47:12;7.07;;;3.40;;
41683;SDS011;27369;52.030;4.586;2023-01-10T16:49:38;4.40;;;3.57;;
41683;SDS011;27369;52.030;4.586;2023-01-10T16:52:05;4.18;;;3.78;;
41683;SDS011;27369;52.030;4.586;2023-01-10T16:54:31;5.13;;;3.78;;
41683;SDS011;27369;52.030;4.586;2023-01-10T16:56:59;9.13;;;3.22;;
41683;SDS011;27369;52.030;4.586;2023-01-10T16:59:24;6.88;;;5.05;;
41683;SDS011;27369;52.030;4.586;2023-01-10T17:01:51;6.57;;;5.90;;
41683;SDS011;27369;52.030;4.586;2023-01-10T17:04:20;10.10;;;6.47;;
41683;SDS011;27369;52.030;4.586;2023-01-10T17:06:47;9.35;;;7.15;;
41683;SDS011;27369;52.030;4.586;2023-01-10T17:09:23;9.50;;;6.80;;
41683;SDS011;27369;52.030;4.586;2023-01-10T17:11:54;6.90;;;6.30;;
41683;SDS011;27369;52.030;4.586;2023-01-10T17:14:29;7.75;;;6.68;;
41683;SDS011;27369;52.030;4.586;2023-01-10T17:17:00;8.57;;;6.72;;
41683;SDS011;27369;52.030;4.586;2023-01-10T17:19:26;9.02;;;6.78;;